Time;durP1;ratioP1;P1;durP2;ratioP2;P2;SDS_P1;SDS_P2;PMS_P1;PMS_P2;Temp;Humidity;BMP_temperature;BMP_pressure;BME280_temperature;BME280_humidity;BME280_pressure;Samples;Min_cycle;Max_cycle;Signal;HPM_P1;HPM_P2
2022/08/17 00:00:41;;;;;;;5.47;4.40;;;26.00;79.50;;;;;;4069638;29;20074;-63
2022/08/17 00:02:59;;;;;;;6.32;4.53;;;25.70;80.40;;;;;;4065883;29;20116;-63
2022/08/17 00:05:00;;;;;;;4.38;3.97;;;25.60;81.30;;;;;;4055324;29;20043;-63
2022/08/17 00:07:01;;;;;;;4.78;3.60;;;25.40;81.60;;;;;;4058663;29;20048;-63
2022/08/17 00:09:04;;;;;;;4.72;3.97;;;25.40;82.10;;;;;;4063480;29;20037;-63
2022/08/17 00:11:16;;;;;;;5.10;4.13;;;25.30;82.10;;;;;;4067791;29;20123;-63
2022/08/17 00:13:23;;;;;;;7.15;4.32;;;25.20;82.20;;;;;;4053942;29;20083;-63
2022/08/17 00:15:24;;;;;;;4.80;3.97;;;25.10;82.60;;;;;;4059200;29;20043;-63
2022/08/17 00:17:24;;;;;;;4.22;3.60;;;25.00;83.20;;;;;;4040827;29;20063;-63
2022/08/17 00:19:25;;;;;;;3.97;3.55;;;25.00;83.70;;;;;;4055412;29;20123;-63
2022/08/17 00:21:27;;;;;;;5.25;3.70;;;25.00;83.80;;;;;;4055414;29;20531;-63
2022/08/17 00:23:28;;;;;;;3.78;3.45;;;25.00;83.50;;;;;;4061090;29;20112;-63
2022/08/17 00:25:28;;;;;;;5.07;4.20;;;25.00;83.30;;;;;;4053474;29;20040;-63
2022/08/17 00:27:29;;;;;;;5.50;4.18;;;25.00;82.80;;;;;;4052720;29;20404;-63
2022/08/17 00:29:29;;;;;;;4.90;4.03;;;25.10;83.30;;;;;;4055426;29;20041;-63
2022/08/17 00:31:30;;;;;;;5.32;3.97;;;25.00;83.30;;;;;;4055443;29;20036;-63
2022/08/17 00:33:31;;;;;;;5.90;4.18;;;25.00;83.30;;;;;;4055745;29;20033;-63
2022/08/17 00:35:31;;;;;;;5.50;3.97;;;25.00;83.80;;;;;;4059466;29;20429;-63
2022/08/17 00:37:32;;;;;;;5.57;3.85;;;24.90;83.60;;;;;;4059842;29;20037;-63
2022/08/17 00:39:33;;;;;;;5.13;4.00;;;25.00;83.70;;;;;;4068868;29;20050;-63
2022/08/17 00:41:34;;;;;;;5.93;4.03;;;25.00;83.80;;;;;;4067780;29;20068;-62
2022/08/17 00:43:38;;;;;;;4.07;3.35;;;25.10;84.20;;;;;;4070403;29;20071;-63
2022/08/17 00:45:39;;;;;;;6.50;3.60;;;25.10;84.10;;;;;;4071138;29;20055;-63
2022/08/17 00:47:40;;;;;;;3.80;3.30;;;25.10;84.80;;;;;;4074284;29;20036;-63
2022/08/17 00:49:41;;;;;;;4.70;3.45;;;25.20;83.90;;;;;;4071306;29;20046;-63
2022/08/17 00:51:48;;;;;;;5.93;4.00;;;25.20;83.80;;;;;;4069240;29;20554;-63
2022/08/17 00:53:55;;;;;;;4.28;3.80;;;25.30;83.50;;;;;;4072212;29;20032;-63
2022/08/17 00:55:58;;;;;;;6.55;3.97;;;25.30;83.10;;;;;;4070995;29;20055;-63
2022/08/17 00:58:02;;;;;;;5.43;4.10;;;25.30;82.90;;;;;;4074100;29;20039;-63
2022/08/17 01:00:11;;;;;;;4.32;3.92;;;25.30;83.30;;;;;;4074275;29;20047;-63
2022/08/17 01:02:14;;;;;;;5.25;3.90;;;25.20;83.40;;;;;;4071056;29;20040;-63
2022/08/17 01:04:18;;;;;;;5.93;4.32;;;25.20;83.70;;;;;;4071127;29;20530;-63
2022/08/17 01:06:21;;;;;;;6.25;3.97;;;25.00;83.90;;;;;;4073837;29;20040;-63
2022/08/17 01:08:25;;;;;;;5.70;3.95;;;25.00;84.30;;;;;;4071711;29;20052;-63
2022/08/17 01:10:34;;;;;;;5.28;3.67;;;25.00;84.30;;;;;;4073288;29;20040;-63
2022/08/17 01:12:35;;;;;;;8.73;4.32;;;25.00;84.50;;;;;;4070416;29;20408;-62
2022/08/17 01:14:38;;;;;;;6.25;4.32;;;24.90;84.40;;;;;;4072888;28;20040;-63
2022/08/17 01:16:39;;;;;;;6.20;4.10;;;24.90;84.40;;;;;;4074221;29;20063;-63
2022/08/17 01:18:39;;;;;;;4.90;3.90;;;24.90;84.90;;;;;;4072746;29;20031;-63
2022/08/17 01:20:45;;;;;;;4.57;4.03;;;25.00;84.80;;;;;;4072927;29;20051;-63
2022/08/17 01:22:46;;;;;;;4.85;4.00;;;25.00;85.10;;;;;;4069541;29;20055;-63
2022/08/17 01:24:55;;;;;;;8.43;4.10;;;25.10;85.60;;;;;;4073341;29;20040;-63
2022/08/17 01:26:56;;;;;;;6.97;4.07;;;25.10;85.20;;;;;;4068889;29;20034;-62
2022/08/17 01:28:56;;;;;;;6.32;4.50;;;25.10;84.60;;;;;;4070387;29;20064;-63
2022/08/17 01:31:00;;;;;;;6.32;4.47;;;25.20;87.10;;;;;;4065238;29;20040;-63
2022/08/17 01:33:01;;;;;;;5.60;4.30;;;25.20;84.90;;;;;;4064186;29;20091;-63
2022/08/17 01:35:03;;;;;;;6.13;4.53;;;25.20;84.80;;;;;;4066298;29;20028;-62
2022/08/17 01:37:04;;;;;;;6.22;3.97;;;25.20;84.60;;;;;;4065725;29;20043;-62
2022/08/17 01:39:10;;;;;;;4.93;4.43;;;25.20;84.80;;;;;;4065589;29;20047;-63
2022/08/17 01:41:14;;;;;;;6.68;4.22;;;25.30;84.30;;;;;;4071541;29;20043;-63
2022/08/17 01:43:21;;;;;;;5.18;4.18;;;25.20;83.60;;;;;;4069210;29;20436;-63
2022/08/17 01:45:27;;;;;;;7.10;4.18;;;25.20;83.50;;;;;;4070432;29;20044;-63
2022/08/17 01:47:28;;;;;;;6.28;4.20;;;25.20;84.00;;;;;;4073385;29;20504;-62
2022/08/17 01:49:28;;;;;;;5.18;3.95;;;25.20;83.70;;;;;;4074252;29;20115;-63
2022/08/17 01:51:31;;;;;;;5.35;4.55;;;25.20;84.30;;;;;;4070117;29;20032;-63
2022/08/17 01:53:39;;;;;;;5.05;4.32;;;25.20;84.30;;;;;;4070309;29;20066;-63
2022/08/17 01:55:45;;;;;;;4.30;3.78;;;25.10;84.50;;;;;;4071671;29;20070;-63
2022/08/17 01:57:46;;;;;;;5.40;4.43;;;25.10;84.30;;;;;;4070256;29;20135;-64
2022/08/17 01:59:47;;;;;;;5.57;4.28;;;25.10;84.10;;;;;;4072606;29;20526;-64
2022/08/17 02:01:47;;;;;;;5.35;4.60;;;25.10;84.30;;;;;;4069826;29;20398;-63
2022/08/17 02:03:48;;;;;;;5.70;4.80;;;25.00;84.70;;;;;;4072560;29;20614;-63
2022/08/17 02:05:49;;;;;;;6.75;4.13;;;24.80;85.10;;;;;;4070295;29;20075;-63
2022/08/17 02:07:51;;;;;;;5.45;4.78;;;24.70;85.60;;;;;;4072960;29;20044;-63
2022/08/17 02:09:52;;;;;;;4.80;4.28;;;24.70;86.00;;;;;;4071910;29;20385;-63
2022/08/17 02:11:57;;;;;;;5.97;4.70;;;24.60;86.20;;;;;;4064568;29;20095;-63
2022/08/17 02:13:57;;;;;;;5.90;4.90;;;24.50;86.20;;;;;;4065755;29;20033;-63
2022/08/17 02:15:59;;;;;;;6.20;4.97;;;24.40;86.50;;;;;;4070591;29;20554;-63
2022/08/17 02:18:01;;;;;;;6.90;5.10;;;24.30;87.10;;;;;;4072833;29;20043;-63
2022/08/17 02:20:03;;;;;;;7.78;5.18;;;24.20;87.50;;;;;;4071046;29;20024;-63
2022/08/17 02:22:04;;;;;;;5.40;4.85;;;24.10;88.00;;;;;;4069627;29;20059;-63
2022/08/17 02:24:09;;;;;;;5.85;5.10;;;24.00;88.30;;;;;;4069959;29;20047;-62
2022/08/17 02:26:11;;;;;;;5.70;4.80;;;24.00;88.50;;;;;;4072108;29;20110;-63
2022/08/17 02:28:12;;;;;;;6.40;5.32;;;23.90;88.80;;;;;;4086513;28;20032;-63
2022/08/17 02:30:15;;;;;;;5.70;4.47;;;23.90;89.10;;;;;;4072248;29;20031;-63
2022/08/17 02:32:24;;;;;;;5.88;4.93;;;23.90;89.20;;;;;;4068383;29;20120;-63
2022/08/17 02:34:26;;;;;;;5.63;5.13;;;23.80;89.20;;;;;;4067808;29;20040;-63
2022/08/17 02:36:26;;;;;;;5.38;4.43;;;23.80;89.40;;;;;;4069175;29;20043;-63
2022/08/17 02:38:27;;;;;;;6.15;5.03;;;23.80;89.50;;;;;;4074014;29;20040;-63
2022/08/17 02:44:48;;;;;;;5.82;4.85;;;23.80;89.90;;;;;;4017971;22;20054;-65
2022/08/17 02:47:10;;;;;;;5.18;4.63;;;23.80;90.00;;;;;;4102201;28;20122;-65
2022/08/17 02:49:11;;;;;;;6.15;4.80;;;23.90;90.10;;;;;;4128575;28;20038;-65
2022/08/17 02:51:12;;;;;;;5.22;4.57;;;23.90;89.70;;;;;;4127970;28;20043;-65
2022/08/17 02:53:13;;;;;;;5.30;4.55;;;24.00;90.00;;;;;;4128781;28;20117;-66
2022/08/17 02:55:17;;;;;;;5.60;4.72;;;24.00;89.90;;;;;;4129531;28;20369;-66
2022/08/17 02:57:17;;;;;;;6.65;4.93;;;24.00;89.80;;;;;;4135218;28;20029;-66
2022/08/17 02:59:18;;;;;;;5.55;5.00;;;24.10;90.00;;;;;;4130482;28;20038;-66
2022/08/17 03:01:19;;;;;;;6.82;5.05;;;24.10;90.00;;;;;;4112331;28;20043;-66
2022/08/17 03:03:19;;;;;;;7.82;5.07;;;24.10;90.10;;;;;;4128280;28;20046;-66
2022/08/17 03:05:23;;;;;;;5.47;4.82;;;24.10;90.20;;;;;;4128821;28;20049;-66
2022/08/17 03:07:23;;;;;;;7.60;5.10;;;24.20;90.20;;;;;;4130444;28;20117;-66
2022/08/17 03:11:34;;;;;;;5.95;4.95;;;24.20;90.30;;;;;;1975308;23;20137;-67
2022/08/17 03:13:35;;;;;;;5.40;4.90;;;24.20;90.60;;;;;;4111132;28;20564;-68
2022/08/17 03:15:38;;;;;;;4.82;4.35;;;24.20;90.20;;;;;;4114315;28;20181;-68
2022/08/17 03:17:38;;;;;;;5.80;4.57;;;24.30;89.60;;;;;;4114055;28;20124;-67
2022/08/17 03:19:39;;;;;;;5.22;4.20;;;24.30;89.70;;;;;;4115324;28;20031;-68
2022/08/17 03:21:40;;;;;;;5.50;4.60;;;24.30;88.60;;;;;;4110399;28;20405;-68
2022/08/17 03:23:41;;;;;;;5.80;4.78;;;24.30;88.40;;;;;;4112657;28;20063;-68
2022/08/17 03:25:45;;;;;;;5.43;4.90;;;24.20;88.60;;;;;;4113330;28;20420;-68
2022/08/17 03:27:45;;;;;;;5.90;4.72;;;24.20;88.60;;;;;;4114472;28;20488;-68
2022/08/17 03:29:46;;;;;;;5.85;4.93;;;24.20;88.80;;;;;;4116744;28;20030;-68
2022/08/17 03:31:48;;;;;;;7.32;4.95;;;24.20;89.00;;;;;;4113314;28;20073;-68
2022/08/17 03:33:48;;;;;;;5.40;4.90;;;24.20;89.80;;;;;;4115266;28;20146;-68
2022/08/17 03:35:49;;;;;;;6.38;4.65;;;24.20;89.80;;;;;;4111951;28;20031;-68
2022/08/17 03:37:51;;;;;;;6.30;4.88;;;24.20;89.60;;;;;;4116238;28;20042;-68
2022/08/17 03:39:53;;;;;;;7.15;4.85;;;24.20;90.00;;;;;;4115218;28;20493;-67
2022/08/17 03:42:01;;;;;;;5.70;4.77;;;24.20;89.50;;;;;;4109766;28;20065;-67
2022/08/17 03:44:02;;;;;;;6.15;4.93;;;24.20;89.50;;;;;;4110078;28;20034;-68
2022/08/17 03:57:44;;;;;;;7.40;6.15;;;24.20;90.00;;;;;;4113647;28;20046;-68
2022/08/17 03:59:46;;;;;;;6.28;5.60;;;24.00;89.70;;;;;;4115631;28;20030;-68
2022/08/17 04:01:49;;;;;;;7.22;5.85;;;23.90;90.10;;;;;;4113363;28;20039;-68
2022/08/17 04:03:50;;;;;;;6.45;5.25;;;23.80;90.20;;;;;;4109552;28;20050;-69
2022/08/17 04:05:50;;;;;;;7.82;5.65;;;23.80;90.50;;;;;;4111496;28;20035;-69
2022/08/17 04:07:51;;;;;;;8.77;6.35;;;23.70;90.50;;;;;;4113605;28;20035;-68
2022/08/17 04:09:52;;;;;;;7.53;5.68;;;23.50;91.00;;;;;;4113461;28;20111;-67
2022/08/17 04:11:53;;;;;;;7.03;5.43;;;23.40;91.20;;;;;;4107270;28;20054;-67
2022/08/17 04:13:55;;;;;;;7.38;5.60;;;23.40;91.40;;;;;;4111874;28;20082;-67
2022/08/17 04:15:58;;;;;;;7.32;6.00;;;23.40;91.60;;;;;;4117002;28;20401;-68
2022/08/17 04:17:58;;;;;;;;;;;23.30;91.80;;;;;;4113618;28;20089;-67
2022/08/17 04:19:59;;;;;;;6.38;5.13;;;23.40;92.30;;;;;;4120203;28;19914;-68
2022/08/17 04:22:00;;;;;;;5.40;4.90;;;23.40;92.40;;;;;;4113595;28;20497;-67
2022/08/17 04:24:01;;;;;;;7.10;4.93;;;23.40;92.40;;;;;;4112102;28;20138;-68
2022/08/17 04:26:02;;;;;;;7.82;5.50;;;23.50;92.50;;;;;;4114308;28;20042;-68
2022/08/17 04:28:03;;;;;;;5.95;5.32;;;23.60;92.60;;;;;;4115650;28;20039;-67
2022/08/17 04:30:06;;;;;;;6.47;5.13;;;23.60;92.70;;;;;;4110538;28;20051;-68
2022/08/17 04:32:06;;;;;;;6.50;5.45;;;23.60;92.30;;;;;;4108633;28;20041;-68
2022/08/17 04:34:08;;;;;;;9.10;5.30;;;23.60;91.90;;;;;;4113033;28;20122;-68
2022/08/17 04:36:10;;;;;;;7.57;5.78;;;23.60;91.80;;;;;;4115201;28;20093;-68
2022/08/17 04:38:20;;;;;;;6.55;5.53;;;23.60;92.10;;;;;;4108232;28;20074;-68
2022/08/17 04:42:41;;;;;;;6.63;5.50;;;23.70;92.00;;;;;;4108525;28;20066;-68
2022/08/17 04:44:43;;;;;;;6.47;5.15;;;23.70;91.90;;;;;;4108483;28;20482;-68
2022/08/17 04:46:43;;;;;;;6.15;5.55;;;23.70;92.20;;;;;;4112679;28;20433;-68
2022/08/17 04:48:47;;;;;;;9.23;5.85;;;23.70;92.10;;;;;;4110795;28;20106;-68
2022/08/17 04:50:49;;;;;;;8.18;5.57;;;23.70;92.60;;;;;;4111089;28;20041;-68
2022/08/17 04:52:49;;;;;;;7.22;5.65;;;23.80;92.30;;;;;;4110570;28;20070;-68
2022/08/17 04:54:50;;;;;;;9.27;6.85;;;23.80;92.30;;;;;;4110451;28;20042;-68
2022/08/17 04:56:51;;;;;;;6.18;5.40;;;23.80;92.40;;;;;;4107965;28;20093;-69
2022/08/17 04:58:56;;;;;;;7.05;5.28;;;23.80;92.60;;;;;;4108168;28;20046;-69
2022/08/17 05:00:57;;;;;;;5.93;5.32;;;23.90;92.70;;;;;;4110083;28;20035;-69
2022/08/17 05:02:59;;;;;;;6.57;5.43;;;23.90;92.80;;;;;;4094174;28;20065;-69
2022/08/17 05:04:59;;;;;;;6.70;5.55;;;23.90;93.00;;;;;;4114413;28;20053;-70
2022/08/17 05:07:00;;;;;;;7.93;6.00;;;24.00;93.00;;;;;;4114413;28;20030;-69
2022/08/17 05:09:01;;;;;;;7.43;6.03;;;24.00;93.30;;;;;;4115110;28;20022;-70
2022/08/17 05:11:02;;;;;;;6.78;5.07;;;24.00;93.10;;;;;;4111085;28;20146;-70
2022/08/17 05:13:04;;;;;;;8.85;5.75;;;24.00;93.00;;;;;;4114107;28;20058;-70
2022/08/17 05:15:11;;;;;;;6.03;5.43;;;24.00;92.70;;;;;;4113726;28;20043;-70
2022/08/17 05:17:11;;;;;;;6.43;5.82;;;24.10;92.50;;;;;;4113721;28;20054;-70
2022/08/17 05:19:12;;;;;;;6.03;5.15;;;24.10;92.30;;;;;;4114109;28;20114;-70
2022/08/17 05:21:14;;;;;;;11.13;5.63;;;24.00;92.40;;;;;;4112757;28;20524;-69
2022/08/17 05:23:17;;;;;;;7.57;5.53;;;24.00;92.30;;;;;;4108712;28;20042;-70
2022/08/17 05:25:20;;;;;;;5.55;4.65;;;23.90;92.10;;;;;;4110507;28;20461;-69
2022/08/17 05:27:21;;;;;;;7.25;4.93;;;23.80;91.90;;;;;;4113913;28;20038;-69
2022/08/17 05:29:22;;;;;;;7.13;4.97;;;23.90;92.30;;;;;;4113346;28;20125;-69
2022/08/17 05:31:22;;;;;;;7.05;4.30;;;23.90;92.00;;;;;;4112885;28;20046;-69
2022/08/17 05:33:28;;;;;;;5.93;4.25;;;23.90;91.90;;;;;;4113621;28;20046;-69
2022/08/17 05:35:31;;;;;;;4.30;3.90;;;23.90;92.00;;;;;;4112356;28;20039;-70
2022/08/17 05:37:32;;;;;;;6.45;4.63;;;23.90;92.30;;;;;;4112860;28;20043;-68
2022/08/17 05:39:32;;;;;;;5.07;4.20;;;24.00;92.00;;;;;;4112906;28;20045;-70
2022/08/17 05:41:33;;;;;;;4.78;3.53;;;24.00;91.90;;;;;;4112838;28;20521;-70
2022/08/17 05:43:37;;;;;;;6.30;3.67;;;24.00;91.30;;;;;;4113462;28;20039;-69
2022/08/17 05:45:44;;;;;;;4.72;3.70;;;24.00;91.40;;;;;;4112174;28;20035;-70
2022/08/17 05:47:45;;;;;;;7.65;4.40;;;24.10;92.00;;;;;;4109792;28;20039;-69
2022/08/17 05:49:46;;;;;;;7.05;4.93;;;24.00;92.60;;;;;;4112305;28;20039;-69
2022/08/17 05:51:59;;;;;;;7.32;4.68;;;23.90;92.80;;;;;;4112143;28;20041;-69
2022/08/17 05:54:38;;;;;;;5.55;4.13;;;23.90;91.70;;;;;;4095067;29;20045;-68
2022/08/17 05:57:16;;;;;;;9.75;4.55;;;23.90;91.60;;;;;;4112196;28;20034;-70
2022/08/17 05:59:31;;;;;;;5.45;4.03;;;23.80;91.60;;;;;;4111845;28;20041;-67
2022/08/17 06:01:46;;;;;;;7.80;4.07;;;23.80;91.70;;;;;;4112465;28;20482;-68
2022/08/17 06:03:52;;;;;;;5.78;4.00;;;23.80;91.10;;;;;;4109083;28;20394;-67
2022/08/17 06:06:10;;;;;;;5.63;4.00;;;23.80;91.30;;;;;;4109075;28;20054;-66
2022/08/17 06:08:29;;;;;;;7.22;4.03;;;23.80;91.30;;;;;;4113903;28;23229;-67
2022/08/17 06:10:41;;;;;;;7.50;4.10;;;23.80;91.20;;;;;;4102694;28;20462;-67
2022/08/17 06:13:02;;;;;;;7.90;3.85;;;23.80;92.30;;;;;;4115795;28;20535;-69
2022/08/17 06:15:11;;;;;;;5.50;4.13;;;23.80;91.50;;;;;;4113705;28;20106;-69
2022/08/17 06:17:17;;;;;;;4.68;3.50;;;23.90;91.20;;;;;;4116344;28;20051;-67
2022/08/17 06:19:30;;;;;;;4.28;3.63;;;23.90;91.40;;;;;;4111207;28;20050;-67
2022/08/17 06:21:38;;;;;;;4.65;3.38;;;23.90;91.00;;;;;;4118474;28;20034;-67
2022/08/17 06:23:47;;;;;;;5.20;3.83;;;24.00;91.30;;;;;;4114303;28;20517;-70
2022/08/17 06:25:53;;;;;;;6.75;3.72;;;24.00;90.80;;;;;;4095033;28;20451;-71
2022/08/17 06:28:01;;;;;;;5.32;3.90;;;24.00;91.00;;;;;;4110802;28;20039;-71
2022/08/17 06:30:07;;;;;;;9.30;4.22;;;24.00;90.90;;;;;;4114864;28;20117;-71
2022/08/17 06:32:11;;;;;;;4.93;3.33;;;24.10;90.50;;;;;;4116865;28;20053;-72
2022/08/17 06:34:12;;;;;;;4.55;3.25;;;24.20;90.70;;;;;;4116559;28;20469;-70
2022/08/17 06:36:39;;;;;;;5.38;3.95;;;24.20;90.30;;;;;;4116326;28;20037;-69
2022/08/17 06:39:16;;;;;;;5.15;3.35;;;24.30;90.50;;;;;;4115052;28;20461;-70
2022/08/17 06:41:42;;;;;;;5.80;3.33;;;24.30;90.30;;;;;;4114038;28;20041;-71
2022/08/17 06:43:42;;;;;;;5.88;3.40;;;24.40;90.50;;;;;;4117776;28;20051;-70
2022/08/17 06:45:54;;;;;;;5.05;3.20;;;24.40;90.00;;;;;;4113946;28;20492;-71
2022/08/17 06:48:11;;;;;;;7.20;4.18;;;24.50;90.10;;;;;;4113185;28;20100;-71
2022/08/17 06:50:34;;;;;;;6.30;3.67;;;24.50;90.20;;;;;;4109245;28;20046;-70
2022/08/17 06:52:47;;;;;;;12.60;3.53;;;24.50;90.30;;;;;;4111917;28;20054;-71
2022/08/17 06:55:15;;;;;;;10.82;4.63;;;24.60;90.50;;;;;;4116175;28;20035;-70
2022/08/17 06:57:27;;;;;;;7.07;4.47;;;24.70;90.70;;;;;;4116597;28;20089;-70
2022/08/17 06:59:33;;;;;;;6.00;4.10;;;24.70;90.70;;;;;;4098121;28;20089;-70
2022/08/17 07:01:38;;;;;;;5.15;3.50;;;24.80;90.30;;;;;;4115636;28;20031;-71
2022/08/17 07:03:58;;;;;;;8.38;4.80;;;24.90;90.50;;;;;;4113031;28;20057;-72
2022/08/17 07:06:20;;;;;;;8.50;5.97;;;24.90;90.70;;;;;;4115218;28;20489;-72
2022/08/17 07:08:55;;;;;;;10.15;5.40;;;24.90;90.80;;;;;;4113013;28;20039;-71
2022/08/17 07:10:59;;;;;;;7.22;5.05;;;24.80;90.50;;;;;;4118339;28;20050;-71
2022/08/17 07:13:15;;;;;;;10.45;6.65;;;24.80;91.20;;;;;;4119549;28;20066;-70
2022/08/17 07:15:23;;;;;;;11.77;6.63;;;24.80;91.10;;;;;;4110188;28;20035;-71
2022/08/17 07:17:25;;;;;;;7.68;4.95;;;24.80;91.10;;;;;;4114250;28;20039;-71
2022/08/17 07:19:30;;;;;;;8.57;5.10;;;24.80;91.80;;;;;;4117747;28;20042;-70
2022/08/17 07:21:50;;;;;;;5.63;5.00;;;24.80;91.50;;;;;;4116161;28;20150;-69
2022/08/17 07:24:18;;;;;;;7.65;4.97;;;24.80;92.10;;;;;;4117484;28;20397;-71
2022/08/17 07:26:23;;;;;;;8.70;5.88;;;24.80;92.30;;;;;;4113333;28;20062;-71
2022/08/17 07:28:26;;;;;;;9.05;6.35;;;24.80;92.60;;;;;;4111736;28;20042;-70
2022/08/17 07:30:30;;;;;;;10.32;6.35;;;24.70;92.00;;;;;;4114166;28;20066;-71
2022/08/17 07:32:36;;;;;;;10.98;6.82;;;24.70;91.90;;;;;;4112219;28;20463;-69
2022/08/17 07:35:07;;;;;;;9.35;6.63;;;24.70;92.90;;;;;;4109495;28;20038;-69
2022/08/17 07:37:07;;;;;;;8.73;6.45;;;24.70;92.30;;;;;;4110225;28;20389;-69
2022/08/17 07:39:09;;;;;;;11.10;6.63;;;24.60;92.10;;;;;;4111561;28;20114;-69
2022/08/17 07:41:10;;;;;;;8.43;6.40;;;24.60;92.40;;;;;;4110063;28;20041;-71
2022/08/17 07:43:16;;;;;;;11.00;7.18;;;24.70;92.70;;;;;;4111927;28;20047;-68
2022/08/17 07:49:55;;;;;;;9.57;6.53;;;24.60;93.00;;;;;;4110955;28;20052;-69
2022/08/17 07:52:00;;;;;;;7.80;6.70;;;24.70;93.30;;;;;;4107882;28;20466;-69
2022/08/17 07:54:14;;;;;;;11.93;8.20;;;24.60;93.30;;;;;;4111232;28;20045;-71
2022/08/17 07:56:33;;;;;;;9.40;7.60;;;24.60;93.20;;;;;;4111019;28;20078;-69
2022/08/17 07:58:33;;;;;;;7.72;6.78;;;24.70;94.70;;;;;;4111391;28;20073;-69
2022/08/17 08:00:35;;;;;;;11.32;8.60;;;24.70;93.80;;;;;;4110991;28;20105;-70
2022/08/17 08:02:42;;;;;;;8.27;7.10;;;24.60;93.40;;;;;;4110659;28;20075;-70
2022/08/17 08:04:48;;;;;;;12.90;9.88;;;24.70;93.70;;;;;;4110531;28;20459;-69
2022/08/17 08:06:51;;;;;;;10.48;8.48;;;24.70;93.70;;;;;;4111087;28;20577;-69
2022/08/17 08:08:54;;;;;;;8.55;6.90;;;24.60;93.70;;;;;;4111077;28;20526;-68
2022/08/17 08:11:03;;;;;;;11.35;6.97;;;24.70;95.10;;;;;;4109214;28;20654;-68
2022/08/17 08:13:21;;;;;;;9.73;7.60;;;24.70;95.00;;;;;;4110260;28;20126;-69
2022/08/17 08:15:31;;;;;;;7.47;5.88;;;24.70;93.90;;;;;;4109158;28;20034;-71
2022/08/17 08:17:43;;;;;;;9.70;8.07;;;24.80;94.00;;;;;;4109633;28;20039;-68
2022/08/17 08:19:44;;;;;;;9.18;7.55;;;24.80;95.00;;;;;;4111151;28;20038;-70
2022/08/17 08:22:11;;;;;;;8.68;7.00;;;24.90;95.40;;;;;;4110381;28;20118;-69
2022/08/17 08:24:38;;;;;;;8.65;6.78;;;24.90;95.80;;;;;;4110054;28;20047;-69
2022/08/17 08:26:54;;;;;;;14.40;8.73;;;25.00;95.20;;;;;;4108861;28;20041;-70
2022/08/17 08:29:03;;;;;;;9.32;7.95;;;25.10;94.70;;;;;;4107685;28;20053;-70
2022/08/17 08:31:34;;;;;;;8.48;7.53;;;25.10;94.50;;;;;;4110276;28;20093;-69
2022/08/17 08:34:08;;;;;;;13.20;9.93;;;25.10;94.00;;;;;;4110833;28;20506;-71
2022/08/17 08:36:17;;;;;;;14.15;9.27;;;25.10;94.70;;;;;;4109707;28;20050;-72
2022/08/17 08:38:46;;;;;;;10.30;7.80;;;25.10;94.40;;;;;;4111278;28;20399;-70
2022/08/17 08:40:58;;;;;;;10.57;7.72;;;25.10;95.60;;;;;;4110906;28;20466;-71
2022/08/17 08:43:28;;;;;;;13.25;9.68;;;25.20;95.40;;;;;;4113087;28;20043;-70
2022/08/17 08:45:32;;;;;;;9.65;7.68;;;25.30;94.20;;;;;;4109173;28;20042;-69
2022/08/17 08:48:09;;;;;;;9.88;8.23;;;25.30;94.00;;;;;;4114805;28;20081;-70
2022/08/17 08:50:31;;;;;;;9.98;7.68;;;25.30;92.80;;;;;;4111237;28;20027;-69
2022/08/17 08:52:56;;;;;;;13.65;8.75;;;25.40;93.40;;;;;;4111799;28;20070;-68
2022/08/17 08:55:24;;;;;;;11.48;7.60;;;25.40;92.90;;;;;;4111539;28;20043;-70
2022/08/17 08:57:39;;;;;;;11.57;7.88;;;25.50;93.20;;;;;;4059023;28;20163;-70
2022/08/17 09:00:09;;;;;;;11.40;8.43;;;25.50;93.50;;;;;;4114180;28;20039;-73
2022/08/17 09:02:37;;;;;;;12.18;9.80;;;25.60;92.80;;;;;;4113889;28;20451;-71
2022/08/17 09:04:55;;;;;;;9.73;8.05;;;25.60;93.20;;;;;;4108244;28;20042;-70
2022/08/17 09:07:20;;;;;;;9.30;7.15;;;25.60;92.50;;;;;;4112968;28;20121;-70
2022/08/17 09:09:47;;;;;;;14.43;9.90;;;25.60;92.80;;;;;;4112876;28;20039;-70
2022/08/17 09:11:53;;;;;;;12.15;9.40;;;25.60;92.50;;;;;;4074248;28;20529;-71
2022/08/17 09:14:18;;;;;;;12.98;9.95;;;25.70;92.50;;;;;;4109539;28;20098;-71
2022/08/17 09:16:35;;;;;;;11.80;7.93;;;25.80;92.20;;;;;;4113141;28;20035;-71
2022/08/17 09:18:47;;;;;;;9.43;7.50;;;25.80;92.60;;;;;;4113346;28;20047;-71
2022/08/17 09:20:54;;;;;;;10.07;8.50;;;25.80;92.50;;;;;;4110853;28;20055;-69
2022/08/17 09:23:06;;;;;;;10.80;8.15;;;25.90;92.50;;;;;;4113710;28;20115;-69
2022/08/17 09:25:15;;;;;;;15.05;8.75;;;25.90;92.60;;;;;;4092082;28;20122;-70
2022/08/17 09:27:32;;;;;;;14.65;9.65;;;25.90;91.20;;;;;;4111562;28;20544;-71
2022/08/17 09:29:38;;;;;;;10.70;9.60;;;26.00;92.20;;;;;;4109343;28;20445;-71
2022/08/17 09:31:51;;;;;;;16.15;10.75;;;25.90;91.80;;;;;;4112616;28;20026;-70
2022/08/17 09:33:54;;;;;;;11.55;10.35;;;25.90;91.80;;;;;;4110656;28;20089;-70
2022/08/17 09:36:00;;;;;;;10.30;8.10;;;25.90;92.70;;;;;;4109599;28;20046;-70
2022/08/17 09:38:20;;;;;;;15.27;11.00;;;25.90;92.20;;;;;;4110894;28;20374;-70
2022/08/17 09:40:36;;;;;;;13.73;10.35;;;25.90;92.40;;;;;;4112679;28;20039;-70
2022/08/17 09:42:49;;;;;;;14.32;10.88;;;25.90;92.30;;;;;;4111360;28;20038;-70
2022/08/17 09:45:11;;;;;;;10.52;8.30;;;25.90;91.80;;;;;;4113500;28;20428;-70
2022/08/17 09:47:24;;;;;;;10.90;9.80;;;25.90;92.20;;;;;;4113394;28;20113;-70
2022/08/17 09:49:32;;;;;;;11.05;9.27;;;25.90;92.70;;;;;;4109219;28;20319;-70
2022/08/17 09:51:42;;;;;;;22.27;14.30;;;25.90;92.60;;;;;;4112671;28;20039;-71
2022/08/17 09:53:43;;;;;;;16.95;13.00;;;25.80;92.70;;;;;;4113876;28;20075;-71
2022/08/17 09:56:22;;;;;;;14.65;12.50;;;25.70;92.30;;;;;;4112369;28;20082;-71
2022/08/17 09:58:29;;;;;;;17.08;14.80;;;25.70;92.70;;;;;;4000596;29;20081;-71
2022/08/17 10:00:35;;;;;;;17.45;13.57;;;25.50;92.90;;;;;;4013192;29;20097;-70
2022/08/17 10:02:57;;;;;;;23.75;15.63;;;25.40;93.30;;;;;;4019937;29;20474;-70
2022/08/17 10:05:06;;;;;;;17.75;14.50;;;25.40;93.80;;;;;;4112237;28;20421;-70
2022/08/17 10:07:19;;;;;;;14.65;11.23;;;25.40;93.90;;;;;;4112931;28;20043;-70
2022/08/17 10:09:54;;;;;;;12.98;11.30;;;25.40;94.10;;;;;;4113152;28;20041;-70
2022/08/17 10:12:25;;;;;;;18.05;13.07;;;25.40;94.20;;;;;;4111599;28;20576;-69
2022/08/17 10:14:56;;;;;;;12.55;10.93;;;25.40;95.00;;;;;;4089720;28;20039;-69
2022/08/17 10:17:06;;;;;;;25.02;15.82;;;25.40;94.50;;;;;;4114741;28;20126;-70
2022/08/17 10:19:59;;;;;;;15.57;12.00;;;25.30;95.20;;;;;;4115936;28;20046;-70
2022/08/17 10:26:54;;;;;;;16.38;12.32;;;25.20;95.40;;;;;;4109729;28;20031;-70
2022/08/17 10:29:06;;;;;;;16.05;12.95;;;25.20;95.70;;;;;;4112631;28;20459;-71
2022/08/17 10:31:10;;;;;;;21.50;15.10;;;25.10;96.30;;;;;;4111626;28;20042;-71
2022/08/17 10:33:24;;;;;;;20.38;15.93;;;25.10;96.10;;;;;;4112813;28;20361;-72
2022/08/17 10:35:33;;;;;;;14.93;13.18;;;25.10;96.30;;;;;;4111287;28;20041;-71
2022/08/17 10:38:01;;;;;;;16.60;14.35;;;25.10;96.70;;;;;;4107794;28;20035;-71
2022/08/17 10:40:19;;;;;;;12.48;11.13;;;25.00;97.10;;;;;;4111457;28;20035;-71
2022/08/17 10:42:28;;;;;;;17.27;14.48;;;25.10;97.20;;;;;;4110571;28;20046;-72
2022/08/17 10:44:59;;;;;;;22.63;16.05;;;25.10;97.50;;;;;;4110568;28;20541;-71
2022/08/17 10:47:13;;;;;;;16.08;14.15;;;25.00;98.20;;;;;;4090902;29;20078;-71
2022/08/17 10:49:24;;;;;;;21.60;17.58;;;25.00;97.70;;;;;;4112649;28;20050;-72
2022/08/17 10:51:38;;;;;;;25.10;20.48;;;25.00;97.40;;;;;;4111142;28;20122;-71
2022/08/17 10:53:42;;;;;;;24.75;19.25;;;24.90;97.60;;;;;;4112526;28;20039;-72
2022/08/17 10:56:11;;;;;;;27.10;19.70;;;24.80;98.60;;;;;;4110154;28;20039;-71
2022/08/17 10:58:20;;;;;;;23.85;18.08;;;24.70;99.80;;;;;;4110359;28;20034;-70
2022/08/17 11:00:26;;;;;;;37.95;19.92;;;24.70;99.90;;;;;;4107548;28;20039;-71
2022/08/17 11:02:37;;;;;;;21.10;17.75;;;24.70;99.90;;;;;;4094663;28;20039;-70
2022/08/17 11:04:50;;;;;;;20.50;17.58;;;24.70;99.90;;;;;;4112403;28;20043;-72
2022/08/17 11:07:03;;;;;;;21.02;17.50;;;24.60;99.90;;;;;;4110636;28;20501;-72
2022/08/17 11:09:30;;;;;;;22.58;18.63;;;24.60;99.90;;;;;;4107963;28;20039;-73
2022/08/17 11:12:05;;;;;;;25.17;20.42;;;24.60;99.90;;;;;;4110754;28;20050;-72
2022/08/17 11:14:42;;;;;;;25.13;20.42;;;24.50;99.90;;;;;;4074562;28;20042;-73
2022/08/17 11:17:11;;;;;;;23.88;20.33;;;24.50;99.90;;;;;;4110415;28;20043;-75
2022/08/17 11:19:48;;;;;;;26.75;20.50;;;24.40;99.90;;;;;;4107665;28;20470;-73
2022/08/17 11:22:48;;;;;;;19.95;17.13;;;24.20;99.90;;;;;;4109086;28;20043;-73
2022/08/17 11:24:51;;;;;;;19.65;16.60;;;24.20;99.90;;;;;;4045132;29;20051;-73
2022/08/17 11:27:20;;;;;;;21.33;18.83;;;24.30;99.90;;;;;;4108430;28;20042;-74
2022/08/17 11:29:33;;;;;;;19.25;15.88;;;24.20;99.90;;;;;;4103338;28;20067;-74
2022/08/17 11:31:42;;;;;;;20.73;17.67;;;24.20;99.90;;;;;;4109760;28;20402;-76
2022/08/17 11:33:43;;;;;;;26.13;19.20;;;24.20;99.90;;;;;;4113348;28;20050;-75
2022/08/17 11:35:51;;;;;;;24.15;21.48;;;24.20;99.90;;;;;;4094437;28;20118;-75